<?xml version="1.0" encoding="UTF-8" standalone="no" ?>
<gpx xmlns="http://www.topografix.com/GPX/1/1" xmlns:xsi="http://www.w3.org/2001/XMLSchema-instance" xsi:schemaLocation="http://www.topografix.com/GPX/1/1 http://www.topografix.com/GPX/1/1/gpx.xsd" version="1.1" creator="VisuGPX - https://www.visugpx.com">
  <metadata>
    <name>Remake Raid VTT AVY 30KM Raccourci à22km</name>
    <desc><![CDATA[parcours VTT RAID AVY 30km 2017 refait en juillet 2020, raccourci à la fin]]></desc>
  </metadata>
  <wpt lat="43.65129" lon="3.78824">
    <ele>62.5</ele>
  </wpt>
  <trk>
    <name><![CDATA[Remake Raid VTT AVY 30KM Raccourci à22km_1]]></name>
    <extensions>
      <line xmlns="http://www.topografix.com/GPX/gpx_style/0/2">
        <color>0000FF</color>
        <width>4</width>
      </line>
    </extensions>
    <trkseg>
      <trkpt lat="43.65065" lon="3.78923">
        <ele>78.934052</ele>
        <time>2020-06-28T07:55:13Z</time>
      </trkpt>
      <trkpt lat="43.65063" lon="3.78913">
        <ele>78.509636</ele>
        <time>2020-06-28T07:55:11Z</time>
      </trkpt>
      <trkpt lat="43.65065" lon="3.78902">
        <ele>77.065926</ele>
        <time>2020-06-28T07:55:09Z</time>
      </trkpt>
      <trkpt lat="43.6507" lon="3.78898">
        <ele>75.22403</ele>
        <time>2020-06-28T07:55:07Z</time>
      </trkpt>
      <trkpt lat="43.65072" lon="3.78906">
        <ele>73.224358</ele>
        <time>2020-06-28T07:55:05Z</time>
      </trkpt>
      <trkpt lat="43.65075" lon="3.78916">
        <ele>71.276054</ele>
        <time>2020-06-28T07:55:03Z</time>
      </trkpt>
      <trkpt lat="43.65078" lon="3.78925">
        <ele>69.729553</ele>
        <time>2020-06-28T07:55:01Z</time>
      </trkpt>
      <trkpt lat="43.65083" lon="3.78937">
        <ele>69.120003</ele>
        <time>2020-06-28T07:54:59Z</time>
      </trkpt>
      <trkpt lat="43.65086" lon="3.78947">
        <ele>68.052193</ele>
        <time>2020-06-28T07:54:57Z</time>
      </trkpt>
      <trkpt lat="43.65089" lon="3.78958">
        <ele>66.981133</ele>
        <time>2020-06-28T07:54:55Z</time>
      </trkpt>
      <trkpt lat="43.65093" lon="3.78969">
        <ele>66.34536</ele>
        <time>2020-06-28T07:54:53Z</time>
      </trkpt>
      <trkpt lat="43.65095" lon="3.7898">
        <ele>66.187103</ele>
        <time>2020-06-28T07:54:51Z</time>
      </trkpt>
      <trkpt lat="43.65098" lon="3.78994">
        <ele>66.187103</ele>
        <time>2020-06-28T07:54:49Z</time>
      </trkpt>
      <trkpt lat="43.65099" lon="3.79009">
        <ele>66.299347</ele>
        <time>2020-06-28T07:54:47Z</time>
      </trkpt>
      <trkpt lat="43.65096" lon="3.79024">
        <ele>66.627708</ele>
        <time>2020-06-28T07:54:45Z</time>
      </trkpt>
      <trkpt lat="43.65092" lon="3.79037">
        <ele>67.110756</ele>
        <time>2020-06-28T07:54:43Z</time>
      </trkpt>
      <trkpt lat="43.65086" lon="3.7905">
        <ele>67.351891</ele>
        <time>2020-06-28T07:54:41Z</time>
      </trkpt>
      <trkpt lat="43.65076" lon="3.79061">
        <ele>67.860207</ele>
        <time>2020-06-28T07:54:39Z</time>
      </trkpt>
      <trkpt lat="43.65071" lon="3.79074">
        <ele>68.345848</ele>
        <time>2020-06-28T07:54:37Z</time>
      </trkpt>
      <trkpt lat="43.6507" lon="3.79087">
        <ele>68.837334</ele>
        <time>2020-06-28T07:54:35Z</time>
      </trkpt>
      <trkpt lat="43.65069" lon="3.79098">
        <ele>69.264351</ele>
        <time>2020-06-28T07:54:33Z</time>
      </trkpt>
      <trkpt lat="43.65063" lon="3.79108">
        <ele>69.575859</ele>
        <time>2020-06-28T07:54:31Z</time>
      </trkpt>
      <trkpt lat="43.65058" lon="3.79119">
        <ele>69.635872</ele>
        <time>2020-06-28T07:54:29Z</time>
      </trkpt>
      <trkpt lat="43.65053" lon="3.79131">
        <ele>69.604286</ele>
        <time>2020-06-28T07:54:27Z</time>
      </trkpt>
      <trkpt lat="43.65048" lon="3.79143">
        <ele>69.313316</ele>
        <time>2020-06-28T07:54:25Z</time>
      </trkpt>
      <trkpt lat="43.65043" lon="3.79154">
        <ele>68.759483</ele>
        <time>2020-06-28T07:54:23Z</time>
      </trkpt>
      <trkpt lat="43.65038" lon="3.79165">
        <ele>68.129829</ele>
        <time>2020-06-28T07:54:21Z</time>
      </trkpt>
      <trkpt lat="43.6503" lon="3.79173">
        <ele>67.462547</ele>
        <time>2020-06-28T07:54:19Z</time>
      </trkpt>
      <trkpt lat="43.65024" lon="3.79181">
        <ele>67.021645</ele>
        <time>2020-06-28T07:54:17Z</time>
      </trkpt>
      <trkpt lat="43.65017" lon="3.7919">
        <ele>66.815208</ele>
        <time>2020-06-28T07:54:15Z</time>
      </trkpt>
      <trkpt lat="43.65011" lon="3.79199">
        <ele>66.815208</ele>
        <time>2020-06-28T07:54:13Z</time>
      </trkpt>
      <trkpt lat="43.65006" lon="3.7921">
        <ele>66.847977</ele>
        <time>2020-06-28T07:54:11Z</time>
      </trkpt>
      <trkpt lat="43.65002" lon="3.7922">
        <ele>66.938637</ele>
        <time>2020-06-28T07:54:09Z</time>
      </trkpt>
      <trkpt lat="43.64999" lon="3.79231">
        <ele>67.031471</ele>
        <time>2020-06-28T07:54:07Z</time>
      </trkpt>
      <trkpt lat="43.64996" lon="3.79241">
        <ele>67.072914</ele>
        <time>2020-06-28T07:54:05Z</time>
      </trkpt>
      <trkpt lat="43.64993" lon="3.79252">
        <ele>67.072914</ele>
        <time>2020-06-28T07:54:03Z</time>
      </trkpt>
      <trkpt lat="43.64991" lon="3.79263">
        <ele>67.041641</ele>
        <time>2020-06-28T07:54:01Z</time>
      </trkpt>
      <trkpt lat="43.64989" lon="3.79275">
        <ele>66.928329</ele>
        <time>2020-06-28T07:53:59Z</time>
      </trkpt>
      <trkpt lat="43.64986" lon="3.79286">
        <ele>66.755371</ele>
        <time>2020-06-28T07:53:57Z</time>
      </trkpt>
      <trkpt lat="43.64984" lon="3.79298">
        <ele>66.511719</ele>
        <time>2020-06-28T07:53:55Z</time>
      </trkpt>
      <trkpt lat="43.64982" lon="3.7931">
        <ele>66.229004</ele>
        <time>2020-06-28T07:53:53Z</time>
      </trkpt>
      <trkpt lat="43.6498" lon="3.79322">
        <ele>65.97438</ele>
        <time>2020-06-28T07:53:51Z</time>
      </trkpt>
      <trkpt lat="43.64977" lon="3.79334">
        <ele>65.865242</ele>
        <time>2020-06-28T07:53:49Z</time>
      </trkpt>
      <trkpt lat="43.64975" lon="3.79346">
        <ele>65.708374</ele>
        <time>2020-06-28T07:53:47Z</time>
      </trkpt>
      <trkpt lat="43.64972" lon="3.79358">
        <ele>65.630585</ele>
        <time>2020-06-28T07:53:45Z</time>
      </trkpt>
      <trkpt lat="43.6497" lon="3.7937">
        <ele>65.44529</ele>
        <time>2020-06-28T07:53:43Z</time>
      </trkpt>
      <trkpt lat="43.64968" lon="3.79382">
        <ele>65.225052</ele>
        <time>2020-06-28T07:53:41Z</time>
      </trkpt>
      <trkpt lat="43.64965" lon="3.79393">
        <ele>65.017052</ele>
        <time>2020-06-28T07:53:39Z</time>
      </trkpt>
      <trkpt lat="43.64961" lon="3.79404">
        <ele>64.871681</ele>
        <time>2020-06-28T07:53:37Z</time>
      </trkpt>
      <trkpt lat="43.64957" lon="3.79415">
        <ele>64.831955</ele>
        <time>2020-06-28T07:53:35Z</time>
      </trkpt>
      <trkpt lat="43.64953" lon="3.79426">
        <ele>64.813583</ele>
        <time>2020-06-28T07:53:33Z</time>
      </trkpt>
      <trkpt lat="43.64949" lon="3.79437">
        <ele>64.825264</ele>
        <time>2020-06-28T07:53:31Z</time>
      </trkpt>
      <trkpt lat="43.64945" lon="3.79447">
        <ele>64.890968</ele>
        <time>2020-06-28T07:53:29Z</time>
      </trkpt>
      <trkpt lat="43.64941" lon="3.79457">
        <ele>65.000374</ele>
        <time>2020-06-28T07:53:27Z</time>
      </trkpt>
      <trkpt lat="43.64938" lon="3.79466">
        <ele>65.132599</ele>
        <time>2020-06-28T07:53:25Z</time>
      </trkpt>
      <trkpt lat="43.64935" lon="3.79474">
        <ele>65.27459</ele>
        <time>2020-06-28T07:53:23Z</time>
      </trkpt>
      <trkpt lat="43.64931" lon="3.79479">
        <ele>65.416672</ele>
        <time>2020-06-28T07:53:21Z</time>
      </trkpt>
      <trkpt lat="43.64926" lon="3.79489">
        <ele>65.573456</ele>
        <time>2020-06-28T07:53:19Z</time>
      </trkpt>
      <trkpt lat="43.64921" lon="3.795">
        <ele>65.741211</ele>
        <time>2020-06-28T07:53:17Z</time>
      </trkpt>
      <trkpt lat="43.64916" lon="3.79511">
        <ele>65.941566</ele>
        <time>2020-06-28T07:53:15Z</time>
      </trkpt>
      <trkpt lat="43.6491" lon="3.79522">
        <ele>66.147789</ele>
        <time>2020-06-28T07:53:13Z</time>
      </trkpt>
      <trkpt lat="43.64905" lon="3.79534">
        <ele>66.370605</ele>
        <time>2020-06-28T07:53:11Z</time>
      </trkpt>
      <trkpt lat="43.649" lon="3.79544">
        <ele>66.599937</ele>
        <time>2020-06-28T07:53:09Z</time>
      </trkpt>
      <trkpt lat="43.64895" lon="3.79556">
        <ele>66.70752</ele>
        <time>2020-06-28T07:53:07Z</time>
      </trkpt>
      <trkpt lat="43.6489" lon="3.79567">
        <ele>66.915367</ele>
        <time>2020-06-28T07:53:05Z</time>
      </trkpt>
      <trkpt lat="43.64886" lon="3.79578">
        <ele>67.036461</ele>
        <time>2020-06-28T07:53:03Z</time>
      </trkpt>
      <trkpt lat="43.64882" lon="3.7959">
        <ele>67.051918</ele>
        <time>2020-06-28T07:53:01Z</time>
      </trkpt>
      <trkpt lat="43.64877" lon="3.79602">
        <ele>67.049156</ele>
        <time>2020-06-28T07:52:59Z</time>
      </trkpt>
      <trkpt lat="43.64871" lon="3.79613">
        <ele>66.994225</ele>
        <time>2020-06-28T07:52:57Z</time>
      </trkpt>
      <trkpt lat="43.64865" lon="3.79623">
        <ele>66.950798</ele>
        <time>2020-06-28T07:52:55Z</time>
      </trkpt>
      <trkpt lat="43.64859" lon="3.79631">
        <ele>66.917648</ele>
        <time>2020-06-28T07:52:53Z</time>
      </trkpt>
      <trkpt lat="43.64854" lon="3.79639">
        <ele>66.867058</ele>
        <time>2020-06-28T07:52:51Z</time>
      </trkpt>
      <trkpt lat="43.6485" lon="3.79647">
        <ele>66.798683</ele>
        <time>2020-06-28T07:52:49Z</time>
      </trkpt>
      <trkpt lat="43.64846" lon="3.79656">
        <ele>66.764824</ele>
        <time>2020-06-28T07:52:47Z</time>
      </trkpt>
      <trkpt lat="43.64843" lon="3.79666">
        <ele>66.764824</ele>
        <time>2020-06-28T07:52:45Z</time>
      </trkpt>
      <trkpt lat="43.64838" lon="3.79676">
        <ele>66.764824</ele>
        <time>2020-06-28T07:52:43Z</time>
      </trkpt>
      <trkpt lat="43.64832" lon="3.79685">
        <ele>66.793236</ele>
        <time>2020-06-28T07:52:41Z</time>
      </trkpt>
      <trkpt lat="43.64827" lon="3.79694">
        <ele>66.852257</ele>
        <time>2020-06-28T07:52:39Z</time>
      </trkpt>
      <trkpt lat="43.64822" lon="3.79705">
        <ele>66.887558</ele>
        <time>2020-06-28T07:52:37Z</time>
      </trkpt>
      <trkpt lat="43.64817" lon="3.79715">
        <ele>66.907242</ele>
        <time>2020-06-28T07:52:35Z</time>
      </trkpt>
      <trkpt lat="43.64813" lon="3.79725">
        <ele>66.940605</ele>
        <time>2020-06-28T07:52:33Z</time>
      </trkpt>
      <trkpt lat="43.64809" lon="3.79734">
        <ele>67.002449</ele>
        <time>2020-06-28T07:52:31Z</time>
      </trkpt>
      <trkpt lat="43.64802" lon="3.79741">
        <ele>67.12426</ele>
        <time>2020-06-28T07:52:29Z</time>
      </trkpt>
      <trkpt lat="43.64798" lon="3.79748">
        <ele>67.265953</ele>
        <time>2020-06-28T07:52:27Z</time>
      </trkpt>
      <trkpt lat="43.64794" lon="3.79756">
        <ele>67.429779</ele>
        <time>2020-06-28T07:52:25Z</time>
      </trkpt>
      <trkpt lat="43.6479" lon="3.79765">
        <ele>67.627968</ele>
        <time>2020-06-28T07:52:23Z</time>
      </trkpt>
      <trkpt lat="43.64785" lon="3.79773">
        <ele>67.745789</ele>
        <time>2020-06-28T07:52:21Z</time>
      </trkpt>
      <trkpt lat="43.64779" lon="3.79782">
        <ele>67.992027</ele>
        <time>2020-06-28T07:52:19Z</time>
      </trkpt>
      <trkpt lat="43.64776" lon="3.79792">
        <ele>68.229179</ele>
        <time>2020-06-28T07:52:17Z</time>
      </trkpt>
      <trkpt lat="43.64773" lon="3.798">
        <ele>68.500099</ele>
        <time>2020-06-28T07:52:15Z</time>
      </trkpt>
      <trkpt lat="43.64772" lon="3.79809">
        <ele>68.821754</ele>
        <time>2020-06-28T07:52:13Z</time>
      </trkpt>
      <trkpt lat="43.64771" lon="3.79816">
        <ele>69.191902</ele>
        <time>2020-06-28T07:52:11Z</time>
      </trkpt>
      <trkpt lat="43.64769" lon="3.79823">
        <ele>69.498497</ele>
        <time>2020-06-28T07:52:09Z</time>
      </trkpt>
      <trkpt lat="43.64769" lon="3.79834">
        <ele>69.760712</ele>
        <time>2020-06-28T07:52:07Z</time>
      </trkpt>
      <trkpt lat="43.64768" lon="3.79846">
        <ele>69.964928</ele>
        <time>2020-06-28T07:52:05Z</time>
      </trkpt>
      <trkpt lat="43.64766" lon="3.79858">
        <ele>70.167297</ele>
        <time>2020-06-28T07:52:03Z</time>
      </trkpt>
      <trkpt lat="43.64765" lon="3.79871">
        <ele>70.269875</ele>
        <time>2020-06-28T07:52:01Z</time>
      </trkpt>
      <trkpt lat="43.64764" lon="3.79884">
        <ele>70.286133</ele>
        <time>2020-06-28T07:51:59Z</time>
      </trkpt>
      <trkpt lat="43.64763" lon="3.79897">
        <ele>70.286133</ele>
        <time>2020-06-28T07:51:57Z</time>
      </trkpt>
      <trkpt lat="43.64763" lon="3.7991">
        <ele>70.26107</ele>
        <time>2020-06-28T07:51:55Z</time>
      </trkpt>
      <trkpt lat="43.64761" lon="3.79922">
        <ele>70.182777</ele>
        <time>2020-06-28T07:51:53Z</time>
      </trkpt>
      <trkpt lat="43.64759" lon="3.79936">
        <ele>70.111137</ele>
        <time>2020-06-28T07:51:51Z</time>
      </trkpt>
      <trkpt lat="43.64758" lon="3.79949">
        <ele>70.00692</ele>
        <time>2020-06-28T07:51:49Z</time>
      </trkpt>
      <trkpt lat="43.64758" lon="3.79961">
        <ele>69.882713</ele>
        <time>2020-06-28T07:51:47Z</time>
      </trkpt>
      <trkpt lat="43.64758" lon="3.79973">
        <ele>69.738281</ele>
        <time>2020-06-28T07:51:45Z</time>
      </trkpt>
      <trkpt lat="43.64756" lon="3.79987">
        <ele>69.598228</ele>
        <time>2020-06-28T07:51:43Z</time>
      </trkpt>
      <trkpt lat="43.64755" lon="3.8">
        <ele>69.524101</ele>
        <time>2020-06-28T07:51:41Z</time>
      </trkpt>
      <trkpt lat="43.64753" lon="3.80012">
        <ele>69.364494</ele>
        <time>2020-06-28T07:51:39Z</time>
      </trkpt>
      <trkpt lat="43.6475" lon="3.80024">
        <ele>69.186516</ele>
        <time>2020-06-28T07:51:37Z</time>
      </trkpt>
      <trkpt lat="43.64746" lon="3.80035">
        <ele>68.990685</ele>
        <time>2020-06-28T07:51:35Z</time>
      </trkpt>
      <trkpt lat="43.64743" lon="3.80045">
        <ele>68.724136</ele>
        <time>2020-06-28T07:51:33Z</time>
      </trkpt>
      <trkpt lat="43.64739" lon="3.80056">
        <ele>68.379242</ele>
        <time>2020-06-28T07:51:31Z</time>
      </trkpt>
      <trkpt lat="43.64736" lon="3.80067">
        <ele>67.999687</ele>
        <time>2020-06-28T07:51:29Z</time>
      </trkpt>
      <trkpt lat="43.64732" lon="3.80078">
        <ele>67.6614</ele>
        <time>2020-06-28T07:51:27Z</time>
      </trkpt>
      <trkpt lat="43.64727" lon="3.80088">
        <ele>67.519585</ele>
        <time>2020-06-28T07:51:25Z</time>
      </trkpt>
      <trkpt lat="43.64723" lon="3.80098">
        <ele>67.221794</ele>
        <time>2020-06-28T07:51:23Z</time>
      </trkpt>
      <trkpt lat="43.64719" lon="3.80108">
        <ele>66.894279</ele>
        <time>2020-06-28T07:51:21Z</time>
      </trkpt>
      <trkpt lat="43.64716" lon="3.80117">
        <ele>66.533531</ele>
        <time>2020-06-28T07:51:19Z</time>
      </trkpt>
      <trkpt lat="43.64712" lon="3.80127">
        <ele>66.195152</ele>
        <time>2020-06-28T07:51:17Z</time>
      </trkpt>
      <trkpt lat="43.64708" lon="3.80135">
        <ele>65.933022</ele>
        <time>2020-06-28T07:51:15Z</time>
      </trkpt>
      <trkpt lat="43.64705" lon="3.80143">
        <ele>65.782631</ele>
        <time>2020-06-28T07:51:11Z</time>
      </trkpt>
      <trkpt lat="43.647" lon="3.8016">
        <ele>64.890785</ele>
        <time>2020-06-28T07:50:51Z</time>
      </trkpt>
      <trkpt lat="43.64699" lon="3.80163">
        <ele>64.421684</ele>
        <time>2020-06-28T07:50:49Z</time>
      </trkpt>
      <trkpt lat="43.64697" lon="3.80169">
        <ele>64.192177</ele>
        <time>2020-06-28T07:50:47Z</time>
      </trkpt>
      <trkpt lat="43.64695" lon="3.80176">
        <ele>63.774845</ele>
        <time>2020-06-28T07:50:45Z</time>
      </trkpt>
      <trkpt lat="43.64693" lon="3.80185">
        <ele>63.475998</ele>
        <time>2020-06-28T07:50:43Z</time>
      </trkpt>
      <trkpt lat="43.64689" lon="3.80194">
        <ele>63.335148</ele>
        <time>2020-06-28T07:50:41Z</time>
      </trkpt>
      <trkpt lat="43.64684" lon="3.80203">
        <ele>63.071213</ele>
        <time>2020-06-28T07:50:39Z</time>
      </trkpt>
      <trkpt lat="43.64682" lon="3.80213">
        <ele>62.813297</ele>
        <time>2020-06-28T07:50:37Z</time>
      </trkpt>
      <trkpt lat="43.64681" lon="3.80221">
        <ele>62.610935</ele>
        <time>2020-06-28T07:50:35Z</time>
      </trkpt>
      <trkpt lat="43.64679" lon="3.80232">
        <ele>62.515121</ele>
        <time>2020-06-28T07:50:33Z</time>
      </trkpt>
      <trkpt lat="43.64677" lon="3.80241">
        <ele>62.330173</ele>
        <time>2020-06-28T07:50:31Z</time>
      </trkpt>
      <trkpt lat="43.64676" lon="3.80249">
        <ele>62.140625</ele>
        <time>2020-06-28T07:50:29Z</time>
      </trkpt>
      <trkpt lat="43.64675" lon="3.80259">
        <ele>61.937077</ele>
        <time>2020-06-28T07:50:27Z</time>
      </trkpt>
      <trkpt lat="43.64675" lon="3.8027">
        <ele>61.7103</ele>
        <time>2020-06-28T07:50:25Z</time>
      </trkpt>
      <trkpt lat="43.64677" lon="3.80282">
        <ele>61.470882</ele>
        <time>2020-06-28T07:50:23Z</time>
      </trkpt>
      <trkpt lat="43.64676" lon="3.80293">
        <ele>61.236614</ele>
        <time>2020-06-28T07:50:21Z</time>
      </trkpt>
      <trkpt lat="43.64674" lon="3.80305">
        <ele>61.01939</ele>
        <time>2020-06-28T07:50:19Z</time>
      </trkpt>
      <trkpt lat="43.64672" lon="3.80317">
        <ele>60.817791</ele>
        <time>2020-06-28T07:50:17Z</time>
      </trkpt>
      <trkpt lat="43.6467" lon="3.8033">
        <ele>60.619793</ele>
        <time>2020-06-28T07:50:15Z</time>
      </trkpt>
      <trkpt lat="43.64669" lon="3.80342">
        <ele>60.419186</ele>
        <time>2020-06-28T07:50:13Z</time>
      </trkpt>
      <trkpt lat="43.64668" lon="3.80354">
        <ele>60.38232</ele>
        <time>2020-06-28T07:50:11Z</time>
      </trkpt>
      <trkpt lat="43.64666" lon="3.80367">
        <ele>60.395176</ele>
        <time>2020-06-28T07:50:09Z</time>
      </trkpt>
      <trkpt lat="43.64665" lon="3.8038">
        <ele>60.567272</ele>
        <time>2020-06-28T07:50:07Z</time>
      </trkpt>
      <trkpt lat="43.64664" lon="3.80392">
        <ele>60.743134</ele>
        <time>2020-06-28T07:50:05Z</time>
      </trkpt>
      <trkpt lat="43.64663" lon="3.80405">
        <ele>61.122562</ele>
        <time>2020-06-28T07:50:03Z</time>
      </trkpt>
      <trkpt lat="43.64662" lon="3.80417">
        <ele>61.492893</ele>
        <time>2020-06-28T07:50:01Z</time>
      </trkpt>
      <trkpt lat="43.64662" lon="3.8043">
        <ele>61.887997</ele>
        <time>2020-06-28T07:49:59Z</time>
      </trkpt>
      <trkpt lat="43.64664" lon="3.80443">
        <ele>62.33176</ele>
        <time>2020-06-28T07:49:57Z</time>
      </trkpt>
      <trkpt lat="43.64665" lon="3.80456">
        <ele>62.829998</ele>
        <time>2020-06-28T07:49:55Z</time>
      </trkpt>
      <trkpt lat="43.64667" lon="3.80468">
        <ele>63.357349</ele>
        <time>2020-06-28T07:49:53Z</time>
      </trkpt>
      <trkpt lat="43.64668" lon="3.80481">
        <ele>63.886856</ele>
        <time>2020-06-28T07:49:51Z</time>
      </trkpt>
      <trkpt lat="43.6467" lon="3.80493">
        <ele>64.478798</ele>
        <time>2020-06-28T07:49:49Z</time>
      </trkpt>
      <trkpt lat="43.64671" lon="3.80506">
        <ele>65.098595</ele>
        <time>2020-06-28T07:49:47Z</time>
      </trkpt>
      <trkpt lat="43.64673" lon="3.80519">
        <ele>65.726059</ele>
        <time>2020-06-28T07:49:45Z</time>
      </trkpt>
      <trkpt lat="43.64674" lon="3.80532">
        <ele>66.293915</ele>
        <time>2020-06-28T07:49:43Z</time>
      </trkpt>
      <trkpt lat="43.64675" lon="3.80546">
        <ele>66.540558</ele>
        <time>2020-06-28T07:49:41Z</time>
      </trkpt>
      <trkpt lat="43.64677" lon="3.80559">
        <ele>66.781151</ele>
        <time>2020-06-28T07:49:39Z</time>
      </trkpt>
      <trkpt lat="43.64678" lon="3.80573">
        <ele>67.2052</ele>
        <time>2020-06-28T07:49:37Z</time>
      </trkpt>
      <trkpt lat="43.64679" lon="3.80586">
        <ele>67.391747</ele>
        <time>2020-06-28T07:49:35Z</time>
      </trkpt>
      <trkpt lat="43.64679" lon="3.80599">
        <ele>67.759926</ele>
        <time>2020-06-28T07:49:33Z</time>
      </trkpt>
      <trkpt lat="43.6468" lon="3.80612">
        <ele>68.133461</ele>
        <time>2020-06-28T07:49:31Z</time>
      </trkpt>
      <trkpt lat="43.64679" lon="3.80624">
        <ele>68.512047</ele>
        <time>2020-06-28T07:49:29Z</time>
      </trkpt>
      <trkpt lat="43.64679" lon="3.80637">
        <ele>68.801598</ele>
        <time>2020-06-28T07:49:27Z</time>
      </trkpt>
      <trkpt lat="43.64678" lon="3.8065">
        <ele>68.963867</ele>
        <time>2020-06-28T07:49:25Z</time>
      </trkpt>
      <trkpt lat="43.64677" lon="3.80663">
        <ele>69</ele>
        <time>2020-06-28T07:49:23Z</time>
      </trkpt>
      <trkpt lat="43.64676" lon="3.80676">
        <ele>69</ele>
        <time>2020-06-28T07:49:21Z</time>
      </trkpt>
      <trkpt lat="43.64675" lon="3.80688">
        <ele>69</ele>
        <time>2020-06-28T07:49:19Z</time>
      </trkpt>
      <trkpt lat="43.64673" lon="3.80699">
        <ele>68.973145</ele>
        <time>2020-06-28T07:49:17Z</time>
      </trkpt>
      <trkpt lat="43.6467" lon="3.8071">
        <ele>68.884117</ele>
        <time>2020-06-28T07:49:15Z</time>
      </trkpt>
      <trkpt lat="43.64668" lon="3.80721">
        <ele>68.733154</ele>
        <time>2020-06-28T07:49:13Z</time>
      </trkpt>
      <trkpt lat="43.64666" lon="3.80734">
        <ele>68.547852</ele>
        <time>2020-06-28T07:49:11Z</time>
      </trkpt>
      <trkpt lat="43.64665" lon="3.80747">
        <ele>68.456383</ele>
        <time>2020-06-28T07:49:09Z</time>
      </trkpt>
      <trkpt lat="43.64661" lon="3.8076">
        <ele>68.276611</ele>
        <time>2020-06-28T07:49:07Z</time>
      </trkpt>
      <trkpt lat="43.64657" lon="3.80773">
        <ele>68.102455</ele>
        <time>2020-06-28T07:49:05Z</time>
      </trkpt>
      <trkpt lat="43.64652" lon="3.80786">
        <ele>67.929932</ele>
        <time>2020-06-28T07:49:03Z</time>
      </trkpt>
      <trkpt lat="43.64648" lon="3.80798">
        <ele>67.752769</ele>
        <time>2020-06-28T07:49:01Z</time>
      </trkpt>
      <trkpt lat="43.64644" lon="3.8081">
        <ele>67.570717</ele>
        <time>2020-06-28T07:48:59Z</time>
      </trkpt>
      <trkpt lat="43.6464" lon="3.80821">
        <ele>67.384521</ele>
        <time>2020-06-28T07:48:57Z</time>
      </trkpt>
      <trkpt lat="43.64637" lon="3.80834">
        <ele>67.195885</ele>
        <time>2020-06-28T07:48:55Z</time>
      </trkpt>
      <trkpt lat="43.64635" lon="3.80846">
        <ele>67.001869</ele>
        <time>2020-06-28T07:48:53Z</time>
      </trkpt>
      <trkpt lat="43.64632" lon="3.80859">
        <ele>66.807777</ele>
        <time>2020-06-28T07:48:51Z</time>
      </trkpt>
      <trkpt lat="43.64629" lon="3.80872">
        <ele>66.609131</ele>
        <time>2020-06-28T07:48:49Z</time>
      </trkpt>
      <trkpt lat="43.64625" lon="3.80886">
        <ele>66.396606</ele>
        <time>2020-06-28T07:48:47Z</time>
      </trkpt>
      <trkpt lat="43.64622" lon="3.80899">
        <ele>66.255211</ele>
        <time>2020-06-28T07:48:45Z</time>
      </trkpt>
      <trkpt lat="43.64618" lon="3.80912">
        <ele>66.224693</ele>
        <time>2020-06-28T07:48:43Z</time>
      </trkpt>
      <trkpt lat="43.64615" lon="3.80923">
        <ele>66.224693</ele>
        <time>2020-06-28T07:48:41Z</time>
      </trkpt>
      <trkpt lat="43.64612" lon="3.80934">
        <ele>66.270996</ele>
        <time>2020-06-28T07:48:39Z</time>
      </trkpt>
      <trkpt lat="43.6461" lon="3.80946">
        <ele>66.349495</ele>
        <time>2020-06-28T07:48:37Z</time>
      </trkpt>
      <trkpt lat="43.64608" lon="3.80958">
        <ele>66.515038</ele>
        <time>2020-06-28T07:48:35Z</time>
      </trkpt>
      <trkpt lat="43.64605" lon="3.8097">
        <ele>66.693062</ele>
        <time>2020-06-28T07:48:33Z</time>
      </trkpt>
      <trkpt lat="43.64602" lon="3.80981">
        <ele>66.898537</ele>
        <time>2020-06-28T07:48:31Z</time>
      </trkpt>
      <trkpt lat="43.64599" lon="3.80993">
        <ele>67.130577</ele>
        <time>2020-06-28T07:48:29Z</time>
      </trkpt>
      <trkpt lat="43.64596" lon="3.81003">
        <ele>67.351646</ele>
        <time>2020-06-28T07:48:27Z</time>
      </trkpt>
      <trkpt lat="43.64592" lon="3.81012">
        <ele>67.503258</ele>
        <time>2020-06-28T07:48:25Z</time>
      </trkpt>
      <trkpt lat="43.64587" lon="3.81019">
        <ele>67.60099</ele>
        <time>2020-06-28T07:48:23Z</time>
      </trkpt>
      <trkpt lat="43.64584" lon="3.8103">
        <ele>67.71981</ele>
        <time>2020-06-28T07:48:21Z</time>
      </trkpt>
      <trkpt lat="43.64585" lon="3.81041">
        <ele>67.803795</ele>
        <time>2020-06-28T07:48:19Z</time>
      </trkpt>
      <trkpt lat="43.6459" lon="3.81051">
        <ele>68.011391</ele>
        <time>2020-06-28T07:48:17Z</time>
      </trkpt>
      <trkpt lat="43.64593" lon="3.81062">
        <ele>68.226158</ele>
        <time>2020-06-28T07:48:15Z</time>
      </trkpt>
      <trkpt lat="43.64592" lon="3.81074">
        <ele>68.432289</ele>
        <time>2020-06-28T07:48:13Z</time>
      </trkpt>
      <trkpt lat="43.64591" lon="3.81088">
        <ele>68.64502</ele>
        <time>2020-06-28T07:48:11Z</time>
      </trkpt>
      <trkpt lat="43.6459" lon="3.811">
        <ele>68.876869</ele>
        <time>2020-06-28T07:48:09Z</time>
      </trkpt>
      <trkpt lat="43.6459" lon="3.81113">
        <ele>69.135277</ele>
        <time>2020-06-28T07:48:07Z</time>
      </trkpt>
      <trkpt lat="43.64589" lon="3.81126">
        <ele>69.413742</ele>
        <time>2020-06-28T07:48:05Z</time>
      </trkpt>
      <trkpt lat="43.64587" lon="3.8114">
        <ele>69.701958</ele>
        <time>2020-06-28T07:48:03Z</time>
      </trkpt>
      <trkpt lat="43.64585" lon="3.81153">
        <ele>70.109497</ele>
        <time>2020-06-28T07:48:01Z</time>
      </trkpt>
      <trkpt lat="43.64581" lon="3.81164">
        <ele>70.592964</ele>
        <time>2020-06-28T07:47:59Z</time>
      </trkpt>
      <trkpt lat="43.64578" lon="3.81175">
        <ele>71.205276</ele>
        <time>2020-06-28T07:47:57Z</time>
      </trkpt>
      <trkpt lat="43.64576" lon="3.81188">
        <ele>71.868347</ele>
        <time>2020-06-28T07:47:55Z</time>
      </trkpt>
      <trkpt lat="43.64571" lon="3.81202">
        <ele>72.246674</ele>
        <time>2020-06-28T07:47:53Z</time>
      </trkpt>
      <trkpt lat="43.64566" lon="3.81217">
        <ele>73.105751</ele>
        <time>2020-06-28T07:47:51Z</time>
      </trkpt>
      <trkpt lat="43.64562" lon="3.81234">
        <ele>74.075073</ele>
        <time>2020-06-28T07:47:49Z</time>
      </trkpt>
      <trkpt lat="43.64556" lon="3.81251">
        <ele>75.304222</ele>
        <time>2020-06-28T07:47:47Z</time>
      </trkpt>
      <trkpt lat="43.6455" lon="3.81268">
        <ele>76.715233</ele>
        <time>2020-06-28T07:47:45Z</time>
      </trkpt>
      <trkpt lat="43.64544" lon="3.81285">
        <ele>78.152115</ele>
        <time>2020-06-28T07:47:43Z</time>
      </trkpt>
      <trkpt lat="43.64537" lon="3.81301">
        <ele>79.501396</ele>
        <time>2020-06-28T07:47:41Z</time>
      </trkpt>
      <trkpt lat="43.64532" lon="3.81318">
        <ele>80.14341</ele>
        <time>2020-06-28T07:47:39Z</time>
      </trkpt>
      <trkpt lat="43.64528" lon="3.81335">
        <ele>80.849457</ele>
        <time>2020-06-28T07:47:37Z</time>
      </trkpt>
      <trkpt lat="43.64525" lon="3.81352">
        <ele>82.463348</ele>
        <time>2020-06-28T07:47:35Z</time>
      </trkpt>
      <trkpt lat="43.64522" lon="3.81369">
        <ele>84.819786</ele>
        <time>2020-06-28T07:47:33Z</time>
      </trkpt>
      <trkpt lat="43.6452" lon="3.81388">
        <ele>87.573662</ele>
        <time>2020-06-28T07:47:31Z</time>
      </trkpt>
      <trkpt lat="43.64518" lon="3.81409">
        <ele>90.566566</ele>
        <time>2020-06-28T07:47:29Z</time>
      </trkpt>
      <trkpt lat="43.64513" lon="3.81431">
        <ele>93.257454</ele>
        <time>2020-06-28T07:47:27Z</time>
      </trkpt>
      <trkpt lat="43.64506" lon="3.81452">
        <ele>94.565926</ele>
        <time>2020-06-28T07:47:25Z</time>
      </trkpt>
      <trkpt lat="43.64497" lon="3.81471">
        <ele>97.029991</ele>
        <time>2020-06-28T07:47:23Z</time>
      </trkpt>
      <trkpt lat="43.64488" lon="3.81488">
        <ele>99.118492</ele>
        <time>2020-06-28T07:47:21Z</time>
      </trkpt>
      <trkpt lat="43.64479" lon="3.81504">
        <ele>100.743004</ele>
        <time>2020-06-28T07:47:19Z</time>
      </trkpt>
      <trkpt lat="43.6447" lon="3.81517">
        <ele>101.826904</ele>
        <time>2020-06-28T07:47:17Z</time>
      </trkpt>
      <trkpt lat="43.64463" lon="3.81529">
        <ele>102.686119</ele>
        <time>2020-06-28T07:47:15Z</time>
      </trkpt>
      <trkpt lat="43.6446" lon="3.81538">
        <ele>103.318016</ele>
        <time>2020-06-28T07:47:13Z</time>
      </trkpt>
      <trkpt lat="43.64457" lon="3.81547">
        <ele>103.755287</ele>
        <time>2020-06-28T07:47:11Z</time>
      </trkpt>
      <trkpt lat="43.64458" lon="3.81555">
        <ele>104.016876</ele>
        <time>2020-06-28T07:47:09Z</time>
      </trkpt>
      <trkpt lat="43.64457" lon="3.81566">
        <ele>104.453766</ele>
        <time>2020-06-28T07:47:07Z</time>
      </trkpt>
      <trkpt lat="43.64459" lon="3.81579">
        <ele>104.751373</ele>
        <time>2020-06-28T07:47:05Z</time>
      </trkpt>
      <trkpt lat="43.64464" lon="3.81596">
        <ele>104.916656</ele>
        <time>2020-06-28T07:47:03Z</time>
      </trkpt>
      <trkpt lat="43.6447" lon="3.81613">
        <ele>104.935997</ele>
        <time>2020-06-28T07:47:01Z</time>
      </trkpt>
      <trkpt lat="43.6447" lon="3.81638">
        <ele>104.863556</ele>
        <time>2020-06-28T07:46:59Z</time>
      </trkpt>
      <trkpt lat="43.64474" lon="3.81657">
        <ele>104.763542</ele>
        <time>2020-06-28T07:46:57Z</time>
      </trkpt>
      <trkpt lat="43.64481" lon="3.81674">
        <ele>104.763542</ele>
        <time>2020-06-28T07:46:55Z</time>
      </trkpt>
      <trkpt lat="43.64489" lon="3.81686">
        <ele>105.161049</ele>
        <time>2020-06-28T07:46:53Z</time>
      </trkpt>
      <trkpt lat="43.64495" lon="3.81703">
        <ele>106.063446</ele>
        <time>2020-06-28T07:46:51Z</time>
      </trkpt>
      <trkpt lat="43.64502" lon="3.81718">
        <ele>107.082802</ele>
        <time>2020-06-28T07:46:49Z</time>
      </trkpt>
      <trkpt lat="43.64504" lon="3.81734">
        <ele>107.934662</ele>
        <time>2020-06-28T07:46:47Z</time>
      </trkpt>
      <trkpt lat="43.64503" lon="3.81752">
        <ele>108.385033</ele>
        <time>2020-06-28T07:46:45Z</time>
      </trkpt>
      <trkpt lat="43.645" lon="3.81768">
        <ele>108.577881</ele>
        <time>2020-06-28T07:46:43Z</time>
      </trkpt>
      <trkpt lat="43.64497" lon="3.81783">
        <ele>108.883636</ele>
        <time>2020-06-28T07:46:41Z</time>
      </trkpt>
      <trkpt lat="43.64493" lon="3.818">
        <ele>109.072853</ele>
        <time>2020-06-28T07:46:39Z</time>
      </trkpt>
      <trkpt lat="43.64489" lon="3.81817">
        <ele>109.123779</ele>
        <time>2020-06-28T07:46:37Z</time>
      </trkpt>
      <trkpt lat="43.64485" lon="3.81833">
        <ele>109.136147</ele>
        <time>2020-06-28T07:46:35Z</time>
      </trkpt>
      <trkpt lat="43.64481" lon="3.81847">
        <ele>109.150635</ele>
        <time>2020-06-28T07:46:33Z</time>
      </trkpt>
      <trkpt lat="43.64479" lon="3.81861">
        <ele>109.152504</ele>
        <time>2020-06-28T07:46:31Z</time>
      </trkpt>
      <trkpt lat="43.64476" lon="3.81871">
        <ele>109.154869</ele>
        <time>2020-06-28T07:46:29Z</time>
      </trkpt>
      <trkpt lat="43.64475" lon="3.8188">
        <ele>109.19339</ele>
        <time>2020-06-28T07:46:27Z</time>
      </trkpt>
      <trkpt lat="43.64472" lon="3.8189">
        <ele>109.267113</ele>
        <time>2020-06-28T07:46:25Z</time>
      </trkpt>
      <trkpt lat="43.6447" lon="3.819">
        <ele>109.357414</ele>
        <time>2020-06-28T07:46:23Z</time>
      </trkpt>
      <trkpt lat="43.64469" lon="3.81909">
        <ele>109.449738</ele>
        <time>2020-06-28T07:46:21Z</time>
      </trkpt>
      <trkpt lat="43.64465" lon="3.81918">
        <ele>109.49984</ele>
        <time>2020-06-28T07:46:19Z</time>
      </trkpt>
      <trkpt lat="43.64462" lon="3.81925">
        <ele>109.614929</ele>
        <time>2020-06-28T07:46:17Z</time>
      </trkpt>
      <trkpt lat="43.6446" lon="3.81936">
        <ele>109.732323</ele>
        <time>2020-06-28T07:46:15Z</time>
      </trkpt>
      <trkpt lat="43.64456" lon="3.81947">
        <ele>109.791603</ele>
        <time>2020-06-28T07:46:13Z</time>
      </trkpt>
      <trkpt lat="43.6445" lon="3.81957">
        <ele>109.795708</ele>
        <time>2020-06-28T07:46:11Z</time>
      </trkpt>
      <trkpt lat="43.64444" lon="3.81967">
        <ele>109.787193</ele>
        <time>2020-06-28T07:46:09Z</time>
      </trkpt>
      <trkpt lat="43.64438" lon="3.81978">
        <ele>109.723305</ele>
        <time>2020-06-28T07:46:07Z</time>
      </trkpt>
      <trkpt lat="43.64432" lon="3.81988">
        <ele>109.648109</ele>
        <time>2020-06-28T07:46:05Z</time>
      </trkpt>
      <trkpt lat="43.64426" lon="3.81999">
        <ele>109.577065</ele>
        <time>2020-06-28T07:46:03Z</time>
      </trkpt>
      <trkpt lat="43.64421" lon="3.8201">
        <ele>109.571205</ele>
        <time>2020-06-28T07:46:01Z</time>
      </trkpt>
      <trkpt lat="43.64415" lon="3.82022">
        <ele>109.574623</ele>
        <time>2020-06-28T07:45:59Z</time>
      </trkpt>
      <trkpt lat="43.64409" lon="3.82033">
        <ele>109.595154</ele>
        <time>2020-06-28T07:45:57Z</time>
      </trkpt>
      <trkpt lat="43.64403" lon="3.82045">
        <ele>109.610596</ele>
        <time>2020-06-28T07:45:55Z</time>
      </trkpt>
      <trkpt lat="43.64397" lon="3.82057">
        <ele>109.610596</ele>
        <time>2020-06-28T07:45:53Z</time>
      </trkpt>
      <trkpt lat="43.64391" lon="3.82068">
        <ele>109.588905</ele>
        <time>2020-06-28T07:45:51Z</time>
      </trkpt>
      <trkpt lat="43.64385" lon="3.82077">
        <ele>109.493805</ele>
        <time>2020-06-28T07:45:49Z</time>
      </trkpt>
      <trkpt lat="43.64378" lon="3.82087">
        <ele>109.352539</ele>
        <time>2020-06-28T07:45:47Z</time>
      </trkpt>
      <trkpt lat="43.64372" lon="3.82099">
        <ele>109.172638</ele>
        <time>2020-06-28T07:45:45Z</time>
      </trkpt>
      <trkpt lat="43.64365" lon="3.8211">
        <ele>108.960228</ele>
        <time>2020-06-28T07:45:43Z</time>
      </trkpt>
      <trkpt lat="43.6436" lon="3.82121">
        <ele>108.727417</ele>
        <time>2020-06-28T07:45:41Z</time>
      </trkpt>
      <trkpt lat="43.64356" lon="3.82134">
        <ele>108.491386</ele>
        <time>2020-06-28T07:45:39Z</time>
      </trkpt>
      <trkpt lat="43.64352" lon="3.82146">
        <ele>108.205505</ele>
        <time>2020-06-28T07:45:37Z</time>
      </trkpt>
      <trkpt lat="43.6435" lon="3.82154">
        <ele>108.064972</ele>
        <time>2020-06-28T07:45:35Z</time>
      </trkpt>
      <trkpt lat="43.64349" lon="3.82163">
        <ele>107.915802</ele>
        <time>2020-06-28T07:45:33Z</time>
      </trkpt>
      <trkpt lat="43.64351" lon="3.82171">
        <ele>107.5979</ele>
        <time>2020-06-28T07:45:31Z</time>
      </trkpt>
      <trkpt lat="43.64354" lon="3.82176">
        <ele>107.300194</ele>
        <time>2020-06-28T07:45:29Z</time>
      </trkpt>
      <trkpt lat="43.64359" lon="3.82182">
        <ele>107.151436</ele>
        <time>2020-06-28T07:45:27Z</time>
      </trkpt>
      <trkpt lat="43.64365" lon="3.82186">
        <ele>106.868805</ele>
        <time>2020-06-28T07:45:25Z</time>
      </trkpt>
      <trkpt lat="43.64373" lon="3.82189">
        <ele>106.607018</ele>
        <time>2020-06-28T07:45:23Z</time>
      </trkpt>
      <trkpt lat="43.64383" lon="3.82191">
        <ele>106.367348</ele>
        <time>2020-06-28T07:45:21Z</time>
      </trkpt>
      <trkpt lat="43.64392" lon="3.82197">
        <ele>106.144043</ele>
        <time>2020-06-28T07:45:19Z</time>
      </trkpt>
      <trkpt lat="43.64401" lon="3.82205">
        <ele>105.986168</ele>
        <time>2020-06-28T07:45:17Z</time>
      </trkpt>
      <trkpt lat="43.64408" lon="3.82214">
        <ele>105.9235</ele>
        <time>2020-06-28T07:45:15Z</time>
      </trkpt>
      <trkpt lat="43.64412" lon="3.82226">
        <ele>105.9235</ele>
        <time>2020-06-28T07:45:13Z</time>
      </trkpt>
      <trkpt lat="43.64411" lon="3.82238">
        <ele>105.95121</ele>
        <time>2020-06-28T07:45:11Z</time>
      </trkpt>
      <trkpt lat="43.64406" lon="3.82247">
        <ele>106.024376</ele>
        <time>2020-06-28T07:45:09Z</time>
      </trkpt>
      <trkpt lat="43.64399" lon="3.82251">
        <ele>106.043907</ele>
        <time>2020-06-28T07:45:07Z</time>
      </trkpt>
      <trkpt lat="43.64392" lon="3.82255">
        <ele>106.043907</ele>
        <time>2020-06-28T07:45:05Z</time>
      </trkpt>
      <trkpt lat="43.64385" lon="3.82257">
        <ele>106.02137</ele>
        <time>2020-06-28T07:45:03Z</time>
      </trkpt>
      <trkpt lat="43.64378" lon="3.82257">
        <ele>105.885811</ele>
        <time>2020-06-28T07:45:01Z</time>
      </trkpt>
      <trkpt lat="43.64371" lon="3.82261">
        <ele>105.687134</ele>
        <time>2020-06-28T07:44:59Z</time>
      </trkpt>
      <trkpt lat="43.64367" lon="3.82269">
        <ele>105.475548</ele>
        <time>2020-06-28T07:44:57Z</time>
      </trkpt>
      <trkpt lat="43.64366" lon="3.8228">
        <ele>105.256477</ele>
        <time>2020-06-28T07:44:55Z</time>
      </trkpt>
      <trkpt lat="43.64367" lon="3.82291">
        <ele>105.009094</ele>
        <time>2020-06-28T07:44:53Z</time>
      </trkpt>
      <trkpt lat="43.64366" lon="3.82302">
        <ele>104.703072</ele>
        <time>2020-06-28T07:44:51Z</time>
      </trkpt>
      <trkpt lat="43.64365" lon="3.82314">
        <ele>104.398277</ele>
        <time>2020-06-28T07:44:49Z</time>
      </trkpt>
      <trkpt lat="43.64363" lon="3.82325">
        <ele>104.111656</ele>
        <time>2020-06-28T07:44:47Z</time>
      </trkpt>
      <trkpt lat="43.64359" lon="3.82336">
        <ele>103.875</ele>
        <time>2020-06-28T07:44:45Z</time>
      </trkpt>
      <trkpt lat="43.64352" lon="3.82345">
        <ele>103.754883</ele>
        <time>2020-06-28T07:44:43Z</time>
      </trkpt>
      <trkpt lat="43.64344" lon="3.82353">
        <ele>103.483849</ele>
        <time>2020-06-28T07:44:41Z</time>
      </trkpt>
      <trkpt lat="43.64337" lon="3.82361">
        <ele>103.208618</ele>
        <time>2020-06-28T07:44:39Z</time>
      </trkpt>
      <trkpt lat="43.64329" lon="3.82369">
        <ele>102.92672</ele>
        <time>2020-06-28T07:44:37Z</time>
      </trkpt>
      <trkpt lat="43.64322" lon="3.82377">
        <ele>102.666832</ele>
        <time>2020-06-28T07:44:35Z</time>
      </trkpt>
      <trkpt lat="43.64314" lon="3.82385">
        <ele>102.535316</ele>
        <time>2020-06-28T07:44:33Z</time>
      </trkpt>
      <trkpt lat="43.64306" lon="3.82393">
        <ele>102.260094</ele>
        <time>2020-06-28T07:44:31Z</time>
      </trkpt>
      <trkpt lat="43.643" lon="3.82402">
        <ele>101.96875</ele>
        <time>2020-06-28T07:44:29Z</time>
      </trkpt>
      <trkpt lat="43.64294" lon="3.82411">
        <ele>101.661949</ele>
        <time>2020-06-28T07:44:27Z</time>
      </trkpt>
      <trkpt lat="43.64288" lon="3.8242">
        <ele>101.341766</ele>
        <time>2020-06-28T07:44:25Z</time>
      </trkpt>
      <trkpt lat="43.64283" lon="3.82431">
        <ele>100.984215</ele>
        <time>2020-06-28T07:44:23Z</time>
      </trkpt>
      <trkpt lat="43.64278" lon="3.82441">
        <ele>100.533028</ele>
        <time>2020-06-28T07:44:21Z</time>
      </trkpt>
      <trkpt lat="43.64274" lon="3.82452">
        <ele>99.986298</ele>
        <time>2020-06-28T07:44:19Z</time>
      </trkpt>
      <trkpt lat="43.64269" lon="3.82464">
        <ele>99.410439</ele>
        <time>2020-06-28T07:44:17Z</time>
      </trkpt>
      <trkpt lat="43.64264" lon="3.82474">
        <ele>98.871223</ele>
        <time>2020-06-28T07:44:15Z</time>
      </trkpt>
      <trkpt lat="43.6426" lon="3.82486">
        <ele>98.62606</ele>
        <time>2020-06-28T07:44:13Z</time>
      </trkpt>
      <trkpt lat="43.64254" lon="3.82497">
        <ele>98.187462</ele>
        <time>2020-06-28T07:44:11Z</time>
      </trkpt>
      <trkpt lat="43.6425" lon="3.82508">
        <ele>97.817909</ele>
        <time>2020-06-28T07:44:09Z</time>
      </trkpt>
      <trkpt lat="43.64245" lon="3.82519">
        <ele>97.506508</ele>
        <time>2020-06-28T07:44:07Z</time>
      </trkpt>
      <trkpt lat="43.64241" lon="3.82529">
        <ele>97.213539</ele>
        <time>2020-06-28T07:44:05Z</time>
      </trkpt>
      <trkpt lat="43.64236" lon="3.8254">
        <ele>96.927246</ele>
        <time>2020-06-28T07:44:03Z</time>
      </trkpt>
      <trkpt lat="43.64232" lon="3.8255">
        <ele>96.628906</ele>
        <time>2020-06-28T07:44:01Z</time>
      </trkpt>
      <trkpt lat="43.64227" lon="3.8256">
        <ele>96.312096</ele>
        <time>2020-06-28T07:43:59Z</time>
      </trkpt>
      <trkpt lat="43.64222" lon="3.8257">
        <ele>95.932274</ele>
        <time>2020-06-28T07:43:57Z</time>
      </trkpt>
      <trkpt lat="43.64216" lon="3.82579">
        <ele>95.497284</ele>
        <time>2020-06-28T07:43:55Z</time>
      </trkpt>
      <trkpt lat="43.6421" lon="3.82588">
        <ele>95.259712</ele>
        <time>2020-06-28T07:43:53Z</time>
      </trkpt>
      <trkpt lat="43.64204" lon="3.82597">
        <ele>94.760246</ele>
        <time>2020-06-28T07:43:51Z</time>
      </trkpt>
      <trkpt lat="43.64198" lon="3.82606">
        <ele>94.259491</ele>
        <time>2020-06-28T07:43:49Z</time>
      </trkpt>
      <trkpt lat="43.64192" lon="3.82614">
        <ele>93.764465</ele>
        <time>2020-06-28T07:43:47Z</time>
      </trkpt>
      <trkpt lat="43.64185" lon="3.82623">
        <ele>93.280273</ele>
        <time>2020-06-28T07:43:45Z</time>
      </trkpt>
      <trkpt lat="43.64179" lon="3.82631">
        <ele>92.805016</ele>
        <time>2020-06-28T07:43:43Z</time>
      </trkpt>
      <trkpt lat="43.64172" lon="3.8264">
        <ele>92.270226</ele>
        <time>2020-06-28T07:43:41Z</time>
      </trkpt>
      <trkpt lat="43.64166" lon="3.82648">
        <ele>91.68261</ele>
        <time>2020-06-28T07:43:39Z</time>
      </trkpt>
      <trkpt lat="43.64158" lon="3.82656">
        <ele>91.0308</ele>
        <time>2020-06-28T07:43:37Z</time>
      </trkpt>
      <trkpt lat="43.64151" lon="3.82664">
        <ele>90.437477</ele>
        <time>2020-06-28T07:43:35Z</time>
      </trkpt>
      <trkpt lat="43.64144" lon="3.82672">
        <ele>90.164581</ele>
        <time>2020-06-28T07:43:33Z</time>
      </trkpt>
      <trkpt lat="43.64137" lon="3.8268">
        <ele>89.884186</ele>
        <time>2020-06-28T07:43:31Z</time>
      </trkpt>
      <trkpt lat="43.6413" lon="3.82687">
        <ele>89.386009</ele>
        <time>2020-06-28T07:43:29Z</time>
      </trkpt>
      <trkpt lat="43.64123" lon="3.82694">
        <ele>89.13166</ele>
        <time>2020-06-28T07:43:27Z</time>
      </trkpt>
      <trkpt lat="43.64116" lon="3.82702">
        <ele>88.618385</ele>
        <time>2020-06-28T07:43:25Z</time>
      </trkpt>
      <trkpt lat="43.64109" lon="3.8271">
        <ele>88.087364</ele>
        <time>2020-06-28T07:43:23Z</time>
      </trkpt>
      <trkpt lat="43.64101" lon="3.82717">
        <ele>87.505348</ele>
        <time>2020-06-28T07:43:21Z</time>
      </trkpt>
      <trkpt lat="43.64094" lon="3.82724">
        <ele>86.889305</ele>
        <time>2020-06-28T07:43:19Z</time>
      </trkpt>
      <trkpt lat="43.64087" lon="3.82731">
        <ele>86.294189</ele>
        <time>2020-06-28T07:43:17Z</time>
      </trkpt>
      <trkpt lat="43.64079" lon="3.82738">
        <ele>85.742592</ele>
        <time>2020-06-28T07:43:15Z</time>
      </trkpt>
      <trkpt lat="43.6407" lon="3.82745">
        <ele>85.491364</ele>
        <time>2020-06-28T07:43:13Z</time>
      </trkpt>
      <trkpt lat="43.64063" lon="3.82752">
        <ele>85.007042</ele>
        <time>2020-06-28T07:43:11Z</time>
      </trkpt>
      <trkpt lat="43.64055" lon="3.82758">
        <ele>84.566963</ele>
        <time>2020-06-28T07:43:09Z</time>
      </trkpt>
      <trkpt lat="43.64047" lon="3.82765">
        <ele>84.154633</ele>
        <time>2020-06-28T07:43:07Z</time>
      </trkpt>
      <trkpt lat="43.64037" lon="3.82772">
        <ele>83.732208</ele>
        <time>2020-06-28T07:43:05Z</time>
      </trkpt>
      <trkpt lat="43.64029" lon="3.82778">
        <ele>83.32505</ele>
        <time>2020-06-28T07:43:03Z</time>
      </trkpt>
      <trkpt lat="43.64022" lon="3.82783">
        <ele>83.005775</ele>
        <time>2020-06-28T07:43:01Z</time>
      </trkpt>
      <trkpt lat="43.64013" lon="3.82788">
        <ele>82.74263</ele>
        <time>2020-06-28T07:42:59Z</time>
      </trkpt>
      <trkpt lat="43.64005" lon="3.82794">
        <ele>82.543404</ele>
        <time>2020-06-28T07:42:57Z</time>
      </trkpt>
      <trkpt lat="43.63997" lon="3.82796">
        <ele>82.317253</ele>
        <time>2020-06-28T07:42:55Z</time>
      </trkpt>
      <trkpt lat="43.63988" lon="3.82797">
        <ele>82.119568</ele>
        <time>2020-06-28T07:42:53Z</time>
      </trkpt>
      <trkpt lat="43.63979" lon="3.828">
        <ele>81.917053</ele>
        <time>2020-06-28T07:42:51Z</time>
      </trkpt>
      <trkpt lat="43.63971" lon="3.82801">
        <ele>81.722847</ele>
        <time>2020-06-28T07:42:49Z</time>
      </trkpt>
      <trkpt lat="43.63963" lon="3.82804">
        <ele>81.556648</ele>
        <time>2020-06-28T07:42:47Z</time>
      </trkpt>
      <trkpt lat="43.63958" lon="3.82807">
        <ele>81.377686</ele>
        <time>2020-06-28T07:42:45Z</time>
      </trkpt>
      <trkpt lat="43.63952" lon="3.82811">
        <ele>81.245766</ele>
        <time>2020-06-28T07:42:43Z</time>
      </trkpt>
      <trkpt lat="43.63948" lon="3.82814">
        <ele>81.245766</ele>
        <time>2020-06-28T07:42:41Z</time>
      </trkpt>
      <trkpt lat="43.6394" lon="3.82816">
        <ele>81.267334</ele>
        <time>2020-06-28T07:42:39Z</time>
      </trkpt>
      <trkpt lat="43.63934" lon="3.82819">
        <ele>81.513138</ele>
        <time>2020-06-28T07:42:37Z</time>
      </trkpt>
      <trkpt lat="43.63929" lon="3.82823">
        <ele>82.11676</ele>
        <time>2020-06-28T07:42:35Z</time>
      </trkpt>
      <trkpt lat="43.63925" lon="3.82826">
        <ele>82.88839</ele>
        <time>2020-06-28T07:42:33Z</time>
      </trkpt>
      <trkpt lat="43.63923" lon="3.82818">
        <ele>83.301674</ele>
        <time>2020-06-28T07:42:31Z</time>
      </trkpt>
      <trkpt lat="43.63919" lon="3.82807">
        <ele>84.131348</ele>
        <time>2020-06-28T07:42:29Z</time>
      </trkpt>
      <trkpt lat="43.63914" lon="3.82796">
        <ele>85.037514</ele>
        <time>2020-06-28T07:42:27Z</time>
      </trkpt>
      <trkpt lat="43.63909" lon="3.82784">
        <ele>85.808189</ele>
        <time>2020-06-28T07:42:25Z</time>
      </trkpt>
      <trkpt lat="43.63903" lon="3.82773">
        <ele>86.298912</ele>
        <time>2020-06-28T07:42:23Z</time>
      </trkpt>
      <trkpt lat="43.639" lon="3.82762">
        <ele>86.482422</ele>
        <time>2020-06-28T07:42:21Z</time>
      </trkpt>
      <trkpt lat="43.63896" lon="3.82752">
        <ele>86.514565</ele>
        <time>2020-06-28T07:42:19Z</time>
      </trkpt>
      <trkpt lat="43.63894" lon="3.82744">
        <ele>86.71344</ele>
        <time>2020-06-28T07:42:17Z</time>
      </trkpt>
      <trkpt lat="43.63889" lon="3.82742">
        <ele>87.125694</ele>
        <time>2020-06-28T07:42:15Z</time>
      </trkpt>
      <trkpt lat="43.63884" lon="3.82744">
        <ele>87.782471</ele>
        <time>2020-06-28T07:42:13Z</time>
      </trkpt>
      <trkpt lat="43.63879" lon="3.82742">
        <ele>88.327812</ele>
        <time>2020-06-28T07:42:11Z</time>
      </trkpt>
      <trkpt lat="43.63874" lon="3.82734">
        <ele>88.544167</ele>
        <time>2020-06-28T07:42:09Z</time>
      </trkpt>
      <trkpt lat="43.63871" lon="3.82723">
        <ele>88.544167</ele>
        <time>2020-06-28T07:42:07Z</time>
      </trkpt>
      <trkpt lat="43.63866" lon="3.82717">
        <ele>88.494606</ele>
        <time>2020-06-28T07:42:05Z</time>
      </trkpt>
      <trkpt lat="43.6386" lon="3.82715">
        <ele>88.328613</ele>
        <time>2020-06-28T07:42:03Z</time>
      </trkpt>
      <trkpt lat="43.63853" lon="3.82717">
        <ele>88.141724</ele>
        <time>2020-06-28T07:42:01Z</time>
      </trkpt>
      <trkpt lat="43.63845" lon="3.82719">
        <ele>87.848633</ele>
        <time>2020-06-28T07:41:59Z</time>
      </trkpt>
      <trkpt lat="43.63837" lon="3.82721">
        <ele>87.420982</ele>
        <time>2020-06-28T07:41:57Z</time>
      </trkpt>
      <trkpt lat="43.63828" lon="3.82724">
        <ele>86.952797</ele>
        <time>2020-06-28T07:41:55Z</time>
      </trkpt>
      <trkpt lat="43.63818" lon="3.82726">
        <ele>86.555664</ele>
        <time>2020-06-28T07:41:53Z</time>
      </trkpt>
      <trkpt lat="43.63808" lon="3.82731">
        <ele>86.412926</ele>
        <time>2020-06-28T07:41:51Z</time>
      </trkpt>
      <trkpt lat="43.63799" lon="3.82737">
        <ele>86.25106</ele>
        <time>2020-06-28T07:41:49Z</time>
      </trkpt>
      <trkpt lat="43.6379" lon="3.82742">
        <ele>86.223961</ele>
        <time>2020-06-28T07:41:47Z</time>
      </trkpt>
      <trkpt lat="43.63781" lon="3.82746">
        <ele>86.230629</ele>
        <time>2020-06-28T07:41:45Z</time>
      </trkpt>
      <trkpt lat="43.63772" lon="3.82748">
        <ele>86.322266</ele>
        <time>2020-06-28T07:41:43Z</time>
      </trkpt>
      <trkpt lat="43.63762" lon="3.82751">
        <ele>86.439209</ele>
        <time>2020-06-28T07:41:41Z</time>
      </trkpt>
      <trkpt lat="43.63752" lon="3.82754">
        <ele>86.578941</ele>
        <time>2020-06-28T07:41:39Z</time>
      </trkpt>
      <trkpt lat="43.63741" lon="3.82756">
        <ele>86.746582</ele>
        <time>2020-06-28T07:41:37Z</time>
      </trkpt>
      <trkpt lat="43.63731" lon="3.82759">
        <ele>86.938072</ele>
        <time>2020-06-28T07:41:35Z</time>
      </trkpt>
      <trkpt lat="43.6372" lon="3.82762">
        <ele>87.12394</ele>
        <time>2020-06-28T07:41:33Z</time>
      </trkpt>
      <trkpt lat="43.6371" lon="3.82764">
        <ele>87.205078</ele>
        <time>2020-06-28T07:41:31Z</time>
      </trkpt>
      <trkpt lat="43.637" lon="3.82766">
        <ele>87.284912</ele>
        <time>2020-06-28T07:41:29Z</time>
      </trkpt>
      <trkpt lat="43.63689" lon="3.82769">
        <ele>87.43335</ele>
        <time>2020-06-28T07:41:27Z</time>
      </trkpt>
      <trkpt lat="43.6368" lon="3.82771">
        <ele>87.507813</ele>
        <time>2020-06-28T07:41:25Z</time>
      </trkpt>
      <trkpt lat="43.63669" lon="3.82773">
        <ele>87.669136</ele>
        <time>2020-06-28T07:41:23Z</time>
      </trkpt>
      <trkpt lat="43.63659" lon="3.82775">
        <ele>87.864723</ele>
        <time>2020-06-28T07:41:21Z</time>
      </trkpt>
      <trkpt lat="43.63649" lon="3.82777">
        <ele>88.086586</ele>
        <time>2020-06-28T07:41:19Z</time>
      </trkpt>
      <trkpt lat="43.63639" lon="3.82779">
        <ele>88.338196</ele>
        <time>2020-06-28T07:41:17Z</time>
      </trkpt>
      <trkpt lat="43.6363" lon="3.8278">
        <ele>88.614906</ele>
        <time>2020-06-28T07:41:15Z</time>
      </trkpt>
      <trkpt lat="43.63619" lon="3.82782">
        <ele>88.883881</ele>
        <time>2020-06-28T07:41:13Z</time>
      </trkpt>
      <trkpt lat="43.63606" lon="3.82786">
        <ele>89.118217</ele>
        <time>2020-06-28T07:41:11Z</time>
      </trkpt>
      <trkpt lat="43.63594" lon="3.8279">
        <ele>89.230957</ele>
        <time>2020-06-28T07:41:09Z</time>
      </trkpt>
      <trkpt lat="43.63583" lon="3.82792">
        <ele>89.233925</ele>
        <time>2020-06-28T07:41:07Z</time>
      </trkpt>
      <trkpt lat="43.63573" lon="3.82795">
        <ele>89.183899</ele>
        <time>2020-06-28T07:41:05Z</time>
      </trkpt>
      <trkpt lat="43.63563" lon="3.82798">
        <ele>88.980103</ele>
        <time>2020-06-28T07:41:03Z</time>
      </trkpt>
      <trkpt lat="43.63554" lon="3.82802">
        <ele>88.699501</ele>
        <time>2020-06-28T07:41:01Z</time>
      </trkpt>
      <trkpt lat="43.63544" lon="3.82806">
        <ele>88.400063</ele>
        <time>2020-06-28T07:40:59Z</time>
      </trkpt>
      <trkpt lat="43.63534" lon="3.82811">
        <ele>88.248436</ele>
        <time>2020-06-28T07:40:57Z</time>
      </trkpt>
      <trkpt lat="43.63525" lon="3.82817">
        <ele>87.898193</ele>
        <time>2020-06-28T07:40:55Z</time>
      </trkpt>
      <trkpt lat="43.63516" lon="3.82824">
        <ele>87.44912</ele>
        <time>2020-06-28T07:40:53Z</time>
      </trkpt>
      <trkpt lat="43.63508" lon="3.82832">
        <ele>86.833626</ele>
        <time>2020-06-28T07:40:51Z</time>
      </trkpt>
      <trkpt lat="43.63499" lon="3.8284">
        <ele>86.240166</ele>
        <time>2020-06-28T07:40:49Z</time>
      </trkpt>
      <trkpt lat="43.6349" lon="3.8285">
        <ele>85.744789</ele>
        <time>2020-06-28T07:40:47Z</time>
      </trkpt>
      <trkpt lat="43.63482" lon="3.82859">
        <ele>85.419273</ele>
        <time>2020-06-28T07:40:45Z</time>
      </trkpt>
      <trkpt lat="43.63473" lon="3.8287">
        <ele>85.264977</ele>
        <time>2020-06-28T07:40:43Z</time>
      </trkpt>
      <trkpt lat="43.63466" lon="3.8288">
        <ele>84.95768</ele>
        <time>2020-06-28T07:40:41Z</time>
      </trkpt>
      <trkpt lat="43.63458" lon="3.82891">
        <ele>84.649414</ele>
        <time>2020-06-28T07:40:39Z</time>
      </trkpt>
      <trkpt lat="43.6345" lon="3.82902">
        <ele>84.354012</ele>
        <time>2020-06-28T07:40:37Z</time>
      </trkpt>
      <trkpt lat="43.63443" lon="3.82912">
        <ele>84.117737</ele>
        <time>2020-06-28T07:40:35Z</time>
      </trkpt>
      <trkpt lat="43.63435" lon="3.82922">
        <ele>83.963837</ele>
        <time>2020-06-28T07:40:33Z</time>
      </trkpt>
      <trkpt lat="43.63428" lon="3.82933">
        <ele>83.861275</ele>
        <time>2020-06-28T07:40:31Z</time>
      </trkpt>
      <trkpt lat="43.63421" lon="3.82943">
        <ele>83.811028</ele>
        <time>2020-06-28T07:40:29Z</time>
      </trkpt>
      <trkpt lat="43.63413" lon="3.82953">
        <ele>83.756142</ele>
        <time>2020-06-28T07:40:27Z</time>
      </trkpt>
      <trkpt lat="43.63407" lon="3.82961">
        <ele>83.63015</ele>
        <time>2020-06-28T07:40:25Z</time>
      </trkpt>
      <trkpt lat="43.63399" lon="3.82969">
        <ele>83.487968</ele>
        <time>2020-06-28T07:40:23Z</time>
      </trkpt>
      <trkpt lat="43.63392" lon="3.82977">
        <ele>83.327789</ele>
        <time>2020-06-28T07:40:21Z</time>
      </trkpt>
      <trkpt lat="43.63385" lon="3.82985">
        <ele>83.155731</ele>
        <time>2020-06-28T07:40:19Z</time>
      </trkpt>
      <trkpt lat="43.63377" lon="3.82993">
        <ele>83.010017</ele>
        <time>2020-06-28T07:40:17Z</time>
      </trkpt>
      <trkpt lat="43.63371" lon="3.83">
        <ele>82.909737</ele>
        <time>2020-06-28T07:40:15Z</time>
      </trkpt>
      <trkpt lat="43.63363" lon="3.83007">
        <ele>82.873009</ele>
        <time>2020-06-28T07:40:13Z</time>
      </trkpt>
      <trkpt lat="43.63355" lon="3.83014">
        <ele>82.870842</ele>
        <time>2020-06-28T07:40:11Z</time>
      </trkpt>
      <trkpt lat="43.63348" lon="3.8302">
        <ele>82.878853</ele>
        <time>2020-06-28T07:40:09Z</time>
      </trkpt>
      <trkpt lat="43.6334" lon="3.83027">
        <ele>82.898094</ele>
        <time>2020-06-28T07:40:07Z</time>
      </trkpt>
      <trkpt lat="43.63332" lon="3.83033">
        <ele>82.960129</ele>
        <time>2020-06-28T07:40:05Z</time>
      </trkpt>
      <trkpt lat="43.63324" lon="3.8304">
        <ele>83.050537</ele>
        <time>2020-06-28T07:40:03Z</time>
      </trkpt>
      <trkpt lat="43.63316" lon="3.83046">
        <ele>83.142159</ele>
        <time>2020-06-28T07:40:01Z</time>
      </trkpt>
      <trkpt lat="43.63307" lon="3.83052">
        <ele>83.214439</ele>
        <time>2020-06-28T07:39:59Z</time>
      </trkpt>
      <trkpt lat="43.63299" lon="3.83058">
        <ele>83.266838</ele>
        <time>2020-06-28T07:39:57Z</time>
      </trkpt>
      <trkpt lat="43.63291" lon="3.83063">
        <ele>83.306084</ele>
        <time>2020-06-28T07:39:55Z</time>
      </trkpt>
      <trkpt lat="43.63283" lon="3.83069">
        <ele>83.342354</ele>
        <time>2020-06-28T07:39:53Z</time>
      </trkpt>
      <trkpt lat="43.63274" lon="3.83074">
        <ele>83.374474</ele>
        <time>2020-06-28T07:39:51Z</time>
      </trkpt>
      <trkpt lat="43.63266" lon="3.83079">
        <ele>83.419159</ele>
        <time>2020-06-28T07:39:49Z</time>
      </trkpt>
      <trkpt lat="43.63258" lon="3.83084">
        <ele>83.483582</ele>
        <time>2020-06-28T07:39:47Z</time>
      </trkpt>
      <trkpt lat="43.6325" lon="3.83089">
        <ele>83.531395</ele>
        <time>2020-06-28T07:39:45Z</time>
      </trkpt>
      <trkpt lat="43.63242" lon="3.83093">
        <ele>83.531395</ele>
        <time>2020-06-28T07:39:43Z</time>
      </trkpt>
      <trkpt lat="43.63234" lon="3.83096">
        <ele>83.504364</ele>
        <time>2020-06-28T07:39:41Z</time>
      </trkpt>
      <trkpt lat="43.63227" lon="3.831">
        <ele>83.416077</ele>
        <time>2020-06-28T07:39:39Z</time>
      </trkpt>
      <trkpt lat="43.63219" lon="3.83103">
        <ele>83.29924</ele>
        <time>2020-06-28T07:39:37Z</time>
      </trkpt>
      <trkpt lat="43.63211" lon="3.83106">
        <ele>83.20565</ele>
        <time>2020-06-28T07:39:35Z</time>
      </trkpt>
      <trkpt lat="43.63203" lon="3.83109">
        <ele>83.161186</ele>
        <time>2020-06-28T07:39:33Z</time>
      </trkpt>
      <trkpt lat="43.63194" lon="3.83112">
        <ele>83.101486</ele>
        <time>2020-06-28T07:39:31Z</time>
      </trkpt>
      <trkpt lat="43.63185" lon="3.83116">
        <ele>83.09581</ele>
        <time>2020-06-28T07:39:29Z</time>
      </trkpt>
      <trkpt lat="43.63175" lon="3.83119">
        <ele>83.105881</ele>
        <time>2020-06-28T07:39:27Z</time>
      </trkpt>
      <trkpt lat="43.63166" lon="3.83122">
        <ele>83.136833</ele>
        <time>2020-06-28T07:39:25Z</time>
      </trkpt>
      <trkpt lat="43.63157" lon="3.83125">
        <ele>83.238144</ele>
        <time>2020-06-28T07:39:23Z</time>
      </trkpt>
      <trkpt lat="43.63147" lon="3.83128">
        <ele>83.353149</ele>
        <time>2020-06-28T07:39:21Z</time>
      </trkpt>
      <trkpt lat="43.63137" lon="3.8313">
        <ele>83.468361</ele>
        <time>2020-06-28T07:39:19Z</time>
      </trkpt>
      <trkpt lat="43.63128" lon="3.83132">
        <ele>83.580688</ele>
        <time>2020-06-28T07:39:17Z</time>
      </trkpt>
      <trkpt lat="43.63118" lon="3.83134">
        <ele>83.630592</ele>
        <time>2020-06-28T07:39:15Z</time>
      </trkpt>
      <trkpt lat="43.63108" lon="3.83134">
        <ele>83.630592</ele>
        <time>2020-06-28T07:39:13Z</time>
      </trkpt>
      <trkpt lat="43.63099" lon="3.83134">
        <ele>83.595398</ele>
        <time>2020-06-28T07:39:11Z</time>
      </trkpt>
      <trkpt lat="43.63089" lon="3.83134">
        <ele>83.480591</ele>
        <time>2020-06-28T07:39:09Z</time>
      </trkpt>
      <trkpt lat="43.6308" lon="3.83132">
        <ele>83.415802</ele>
        <time>2020-06-28T07:39:07Z</time>
      </trkpt>
      <trkpt lat="43.6307" lon="3.83128">
        <ele>83.297005</ele>
        <time>2020-06-28T07:39:05Z</time>
      </trkpt>
      <trkpt lat="43.6306" lon="3.83123">
        <ele>83.200111</ele>
        <time>2020-06-28T07:39:03Z</time>
      </trkpt>
      <trkpt lat="43.6305" lon="3.83119">
        <ele>83.170082</ele>
        <time>2020-06-28T07:39:01Z</time>
      </trkpt>
      <trkpt lat="43.63039" lon="3.83117">
        <ele>83.170082</ele>
        <time>2020-06-28T07:38:59Z</time>
      </trkpt>
      <trkpt lat="43.63029" lon="3.83116">
        <ele>83.178566</ele>
        <time>2020-06-28T07:38:57Z</time>
      </trkpt>
      <trkpt lat="43.6302" lon="3.83116">
        <ele>83.187012</ele>
        <time>2020-06-28T07:38:55Z</time>
      </trkpt>
      <trkpt lat="43.6301" lon="3.83117">
        <ele>83.187012</ele>
        <time>2020-06-28T07:38:53Z</time>
      </trkpt>
      <trkpt lat="43.63001" lon="3.83122">
        <ele>83.134277</ele>
        <time>2020-06-28T07:38:51Z</time>
      </trkpt>
      <trkpt lat="43.62992" lon="3.83123">
        <ele>83.039391</ele>
        <time>2020-06-28T07:38:49Z</time>
      </trkpt>
      <trkpt lat="43.62982" lon="3.83121">
        <ele>82.948059</ele>
        <time>2020-06-28T07:38:47Z</time>
      </trkpt>
      <trkpt lat="43.62973" lon="3.83118">
        <ele>82.879539</ele>
        <time>2020-06-28T07:38:45Z</time>
      </trkpt>
      <trkpt lat="43.62964" lon="3.83115">
        <ele>82.855499</ele>
        <time>2020-06-28T07:38:43Z</time>
      </trkpt>
      <trkpt lat="43.62954" lon="3.83112">
        <ele>82.816284</ele>
        <time>2020-06-28T07:38:41Z</time>
      </trkpt>
      <trkpt lat="43.62944" lon="3.83109">
        <ele>82.778343</ele>
        <time>2020-06-28T07:38:39Z</time>
      </trkpt>
      <trkpt lat="43.62935" lon="3.83107">
        <ele>82.728973</ele>
        <time>2020-06-28T07:38:37Z</time>
      </trkpt>
      <trkpt lat="43.62926" lon="3.83104">
        <ele>82.656975</ele>
        <time>2020-06-28T07:38:35Z</time>
      </trkpt>
      <trkpt lat="43.62917" lon="3.83101">
        <ele>82.538078</ele>
        <time>2020-06-28T07:38:33Z</time>
      </trkpt>
      <trkpt lat="43.62909" lon="3.83099">
        <ele>82.39019</ele>
        <time>2020-06-28T07:38:31Z</time>
      </trkpt>
      <trkpt lat="43.62903" lon="3.83097">
        <ele>82.262047</ele>
        <time>2020-06-28T07:38:29Z</time>
      </trkpt>
      <trkpt lat="43.62901" lon="3.83093">
        <ele>82.185944</ele>
        <time>2020-06-28T07:38:27Z</time>
      </trkpt>
      <trkpt lat="43.62898" lon="3.8309">
        <ele>82.16803</ele>
        <time>2020-06-28T07:38:25Z</time>
      </trkpt>
      <trkpt lat="43.62892" lon="3.83087">
        <ele>82.16803</ele>
        <time>2020-06-28T07:38:23Z</time>
      </trkpt>
      <trkpt lat="43.62883" lon="3.83084">
        <ele>82.168083</ele>
        <time>2020-06-28T07:38:21Z</time>
      </trkpt>
      <trkpt lat="43.62875" lon="3.83083">
        <ele>82.213463</ele>
        <time>2020-06-28T07:38:19Z</time>
      </trkpt>
      <trkpt lat="43.62865" lon="3.83083">
        <ele>82.282494</ele>
        <time>2020-06-28T07:38:17Z</time>
      </trkpt>
      <trkpt lat="43.62856" lon="3.83081">
        <ele>82.367645</ele>
        <time>2020-06-28T07:38:15Z</time>
      </trkpt>
      <trkpt lat="43.62846" lon="3.83084">
        <ele>82.470192</ele>
        <time>2020-06-28T07:38:13Z</time>
      </trkpt>
      <trkpt lat="43.62837" lon="3.83086">
        <ele>82.625381</ele>
        <time>2020-06-28T07:38:11Z</time>
      </trkpt>
      <trkpt lat="43.62828" lon="3.83087">
        <ele>82.817505</ele>
        <time>2020-06-28T07:38:09Z</time>
      </trkpt>
      <trkpt lat="43.62819" lon="3.83088">
        <ele>82.977104</ele>
        <time>2020-06-28T07:38:07Z</time>
      </trkpt>
      <trkpt lat="43.62809" lon="3.83089">
        <ele>83.040375</ele>
        <time>2020-06-28T07:38:05Z</time>
      </trkpt>
      <trkpt lat="43.628" lon="3.83093">
        <ele>83.153526</ele>
        <time>2020-06-28T07:38:03Z</time>
      </trkpt>
      <trkpt lat="43.62791" lon="3.83095">
        <ele>83.272469</ele>
        <time>2020-06-28T07:38:01Z</time>
      </trkpt>
      <trkpt lat="43.62782" lon="3.83097">
        <ele>83.438515</ele>
        <time>2020-06-28T07:37:59Z</time>
      </trkpt>
      <trkpt lat="43.62773" lon="3.83097">
        <ele>83.646187</ele>
        <time>2020-06-28T07:37:57Z</time>
      </trkpt>
      <trkpt lat="43.62766" lon="3.83099">
        <ele>83.894127</ele>
        <time>2020-06-28T07:37:55Z</time>
      </trkpt>
      <trkpt lat="43.62758" lon="3.83101">
        <ele>84.167</ele>
        <time>2020-06-28T07:37:53Z</time>
      </trkpt>
      <trkpt lat="43.6275" lon="3.83104">
        <ele>84.453209</ele>
        <time>2020-06-28T07:37:51Z</time>
      </trkpt>
      <trkpt lat="43.62742" lon="3.83107">
        <ele>84.739662</ele>
        <time>2020-06-28T07:37:49Z</time>
      </trkpt>
      <trkpt lat="43.62735" lon="3.8311">
        <ele>85.029381</ele>
        <time>2020-06-28T07:37:47Z</time>
      </trkpt>
      <trkpt lat="43.62729" lon="3.83114">
        <ele>85.383789</ele>
        <time>2020-06-28T07:37:45Z</time>
      </trkpt>
      <trkpt lat="43.62722" lon="3.83118">
        <ele>85.750404</ele>
        <time>2020-06-28T07:37:43Z</time>
      </trkpt>
      <trkpt lat="43.62715" lon="3.83122">
        <ele>86.12516</ele>
        <time>2020-06-28T07:37:41Z</time>
      </trkpt>
      <trkpt lat="43.62708" lon="3.83126">
        <ele>86.462891</ele>
        <time>2020-06-28T07:37:39Z</time>
      </trkpt>
      <trkpt lat="43.62701" lon="3.83131">
        <ele>86.625816</ele>
        <time>2020-06-28T07:37:37Z</time>
      </trkpt>
      <trkpt lat="43.62694" lon="3.83135">
        <ele>86.891197</ele>
        <time>2020-06-28T07:37:35Z</time>
      </trkpt>
      <trkpt lat="43.62687" lon="3.83139">
        <ele>87.001549</ele>
        <time>2020-06-28T07:37:33Z</time>
      </trkpt>
      <trkpt lat="43.6268" lon="3.83144">
        <ele>87.001549</ele>
        <time>2020-06-28T07:37:31Z</time>
      </trkpt>
      <trkpt lat="43.62674" lon="3.8315">
        <ele>86.945152</ele>
        <time>2020-06-28T07:37:29Z</time>
      </trkpt>
      <trkpt lat="43.6267" lon="3.83156">
        <ele>86.811607</ele>
        <time>2020-06-28T07:37:27Z</time>
      </trkpt>
      <trkpt lat="43.62669" lon="3.83162">
        <ele>86.655762</ele>
        <time>2020-06-28T07:37:25Z</time>
      </trkpt>
      <trkpt lat="43.62664" lon="3.83169">
        <ele>86.571289</ele>
        <time>2020-06-28T07:37:23Z</time>
      </trkpt>
      <trkpt lat="43.62658" lon="3.83175">
        <ele>86.381836</ele>
        <time>2020-06-28T07:37:21Z</time>
      </trkpt>
      <trkpt lat="43.62653" lon="3.83183">
        <ele>86.169518</ele>
        <time>2020-06-28T07:37:19Z</time>
      </trkpt>
      <trkpt lat="43.62647" lon="3.83189">
        <ele>85.955482</ele>
        <time>2020-06-28T07:37:17Z</time>
      </trkpt>
      <trkpt lat="43.62641" lon="3.83194">
        <ele>85.75</ele>
        <time>2020-06-28T07:37:15Z</time>
      </trkpt>
      <trkpt lat="43.62634" lon="3.83199">
        <ele>85.561768</ele>
        <time>2020-06-28T07:37:13Z</time>
      </trkpt>
      <trkpt lat="43.62627" lon="3.83204">
        <ele>85.342529</ele>
        <time>2020-06-28T07:37:11Z</time>
      </trkpt>
      <trkpt lat="43.62621" lon="3.83208">
        <ele>85.023598</ele>
        <time>2020-06-28T07:37:09Z</time>
      </trkpt>
      <trkpt lat="43.62616" lon="3.83212">
        <ele>84.569336</ele>
        <time>2020-06-28T07:37:07Z</time>
      </trkpt>
      <trkpt lat="43.6261" lon="3.83218">
        <ele>84.080482</ele>
        <time>2020-06-28T07:37:05Z</time>
      </trkpt>
      <trkpt lat="43.62605" lon="3.83224">
        <ele>83.645424</ele>
        <time>2020-06-28T07:37:03Z</time>
      </trkpt>
      <trkpt lat="43.62598" lon="3.83228">
        <ele>83.455811</ele>
        <time>2020-06-28T07:37:01Z</time>
      </trkpt>
      <trkpt lat="43.62592" lon="3.83233">
        <ele>83.074303</ele>
        <time>2020-06-28T07:36:59Z</time>
      </trkpt>
      <trkpt lat="43.62585" lon="3.83239">
        <ele>82.657715</ele>
        <time>2020-06-28T07:36:57Z</time>
      </trkpt>
      <trkpt lat="43.62582" lon="3.83248">
        <ele>82.209145</ele>
        <time>2020-06-28T07:36:55Z</time>
      </trkpt>
      <trkpt lat="43.62578" lon="3.83257">
        <ele>81.772057</ele>
        <time>2020-06-28T07:36:53Z</time>
      </trkpt>
      <trkpt lat="43.62572" lon="3.83264">
        <ele>81.379639</ele>
        <time>2020-06-28T07:36:51Z</time>
      </trkpt>
      <trkpt lat="43.62566" lon="3.83269">
        <ele>81.037193</ele>
        <time>2020-06-28T07:36:49Z</time>
      </trkpt>
      <trkpt lat="43.62559" lon="3.83275">
        <ele>80.723877</ele>
        <time>2020-06-28T07:36:47Z</time>
      </trkpt>
      <trkpt lat="43.62555" lon="3.83284">
        <ele>80.369789</ele>
        <time>2020-06-28T07:36:45Z</time>
      </trkpt>
      <trkpt lat="43.62552" lon="3.83293">
        <ele>80.01123</ele>
        <time>2020-06-28T07:36:43Z</time>
      </trkpt>
      <trkpt lat="43.62549" lon="3.83303">
        <ele>79.651039</ele>
        <time>2020-06-28T07:36:41Z</time>
      </trkpt>
      <trkpt lat="43.62546" lon="3.83313">
        <ele>79.340248</ele>
        <time>2020-06-28T07:36:39Z</time>
      </trkpt>
      <trkpt lat="43.62544" lon="3.83323">
        <ele>79.195313</ele>
        <time>2020-06-28T07:36:37Z</time>
      </trkpt>
      <trkpt lat="43.62541" lon="3.83333">
        <ele>78.932129</ele>
        <time>2020-06-28T07:36:35Z</time>
      </trkpt>
      <trkpt lat="43.62538" lon="3.83343">
        <ele>78.715248</ele>
        <time>2020-06-28T07:36:33Z</time>
      </trkpt>
      <trkpt lat="43.62535" lon="3.83352">
        <ele>78.531334</ele>
        <time>2020-06-28T07:36:31Z</time>
      </trkpt>
      <trkpt lat="43.62532" lon="3.8336">
        <ele>78.39917</ele>
        <time>2020-06-28T07:36:29Z</time>
      </trkpt>
      <trkpt lat="43.62524" lon="3.8338">
        <ele>77.915199</ele>
        <time>2020-06-28T07:36:27Z</time>
      </trkpt>
      <trkpt lat="43.62524" lon="3.8338">
        <ele>77.915199</ele>
        <time>2020-06-28T07:36:27Z</time>
        <extensions>
          <visugpx:TrkExtension xmlns:visugpx="https://www.visugpx.com/editgpx/">
            <visugpx:node>1</visugpx:node>
            </visugpx:TrkExtension>
        </extensions>
      </trkpt>
    </trkseg>
  </trk>
</gpx>